createdAt,value
2022-08-26T00:01:56.486Z,56.05
2022-08-26T00:04:25.496Z,55.91
2022-08-26T00:06:54.175Z,55.86
2022-08-26T00:09:21.834Z,55.96
2022-08-26T00:11:49.362Z,55.93
2022-08-26T00:14:17.908Z,55.94
2022-08-26T00:16:48.238Z,56.19
2022-08-26T00:19:18.076Z,56.30
2022-08-26T00:21:45.721Z,56.07
2022-08-26T00:24:13.359Z,56.15
2022-08-26T00:26:41.306Z,56.17
2022-08-26T00:29:08.714Z,56.45
2022-08-26T00:31:36.719Z,56.22
2022-08-26T00:34:04.426Z,56.35
2022-08-26T00:36:32.282Z,56.39
2022-08-26T00:38:59.197Z,56.82
2022-08-26T00:41:26.549Z,56.84
2022-08-26T00:43:54.635Z,57.28
2022-08-26T00:46:25.381Z,57.14
2022-08-26T00:49:05.574Z,57.43
2022-08-26T00:51:54.460Z,57.73
2022-08-26T00:54:27.315Z,57.60
2022-08-26T00:56:54.122Z,57.86
2022-08-26T00:59:22.665Z,58.13
2022-08-26T01:01:49.635Z,58.42
2022-08-26T01:04:21.339Z,58.73
2022-08-26T01:06:50.912Z,58.61
2022-08-26T01:09:19.391Z,59.08
2022-08-26T01:11:49.781Z,58.98
2022-08-26T01:14:20.135Z,59.18
2022-08-26T01:16:48.404Z,59.68
2022-08-26T01:19:42.724Z,59.61
2022-08-26T01:22:28.097Z,59.73
2022-08-26T01:24:56.115Z,60.18
2022-08-26T01:27:24.434Z,59.99
2022-08-26T01:29:51.787Z,60.25
2022-08-26T01:32:23.448Z,60.66
2022-08-26T01:34:50.940Z,60.59
2022-08-26T01:37:26.341Z,60.68
2022-08-26T01:39:55.345Z,61.03
2022-08-26T01:42:24.467Z,61.20
2022-08-26T01:44:58.618Z,61.42
2022-08-26T01:47:30.077Z,61.78
2022-08-26T01:50:00.038Z,62.16
2022-08-26T01:52:30.208Z,62.04
2022-08-26T01:54:59.542Z,62.38
2022-08-26T01:57:27.576Z,62.49
2022-08-26T01:59:58.452Z,62.19
2022-08-26T02:02:25.477Z,62.33
2022-08-26T02:05:06.064Z,62.43
2022-08-26T02:07:34.078Z,62.20
2022-08-26T02:10:00.988Z,62.61
2022-08-26T02:12:28.557Z,62.37
2022-08-26T02:14:58.995Z,62.54
2022-08-26T02:17:39.867Z,62.54
2022-08-26T02:20:13.354Z,62.18
2022-08-26T02:22:42.728Z,62.38
2022-08-26T02:25:40.309Z,62.81
2022-08-26T02:28:07.784Z,63.16
2022-08-26T02:30:35.261Z,63.54
2022-08-26T02:33:03.990Z,64.09
2022-08-26T02:35:32.861Z,64.05
2022-08-26T02:38:00.423Z,64.83
2022-08-26T02:40:31.064Z,64.67
2022-08-26T02:42:58.602Z,65.41
2022-08-26T02:45:28.967Z,65.38
2022-08-26T02:47:58.142Z,65.44
2022-08-26T02:50:27.462Z,65.67
2022-08-26T02:52:54.503Z,66.11
2022-08-26T02:55:21.161Z,66.14
2022-08-26T02:57:52.540Z,66.54
2022-08-26T03:00:19.597Z,66.69
2022-08-26T03:02:46.349Z,67.06
2022-08-26T03:05:13.563Z,67.31
2022-08-26T03:07:40.419Z,67.19
2022-08-26T03:10:08.874Z,67.51
2022-08-26T03:12:36.638Z,68.05
2022-08-26T03:15:17.621Z,68.20
2022-08-26T03:17:47.898Z,68.34
2022-08-26T03:20:17.428Z,68.37
2022-08-26T03:22:45.006Z,68.55
2022-08-26T03:25:15.386Z,68.39
2022-08-26T03:27:42.979Z,68.72
2022-08-26T03:30:29.972Z,68.32
2022-08-26T03:32:57.259Z,68.46
2022-08-26T03:35:24.096Z,68.68
2022-08-26T03:37:52.646Z,68.60
2022-08-26T03:40:20.555Z,68.48
2022-08-26T03:42:47.855Z,68.39
2022-08-26T03:45:16.831Z,68.47
2022-08-26T03:47:44.719Z,68.55
2022-08-26T03:50:14.456Z,68.54
2022-08-26T03:52:44.022Z,68.56
2022-08-26T03:55:11.522Z,68.60
2022-08-26T03:57:38.197Z,68.55
2022-08-26T04:00:07.323Z,68.76
2022-08-26T04:02:34.213Z,68.57
2022-08-26T04:05:00.911Z,68.82
2022-08-26T04:07:28.261Z,69.18
2022-08-26T04:09:59.027Z,68.85
2022-08-26T04:12:25.904Z,68.87
2022-08-26T04:14:53.874Z,69.03
2022-08-26T04:17:24.994Z,69.43
2022-08-26T04:19:54.909Z,69.15
2022-08-26T04:22:24.953Z,68.98
2022-08-26T04:24:52.333Z,69.40
2022-08-26T04:27:20.814Z,69.26
2022-08-26T04:29:51.462Z,69.52
2022-08-26T04:32:21.839Z,69.21
2022-08-26T04:34:48.547Z,69.80
2022-08-26T04:37:16.458Z,69.54
2022-08-26T04:39:44.923Z,69.99
2022-08-26T04:42:13.945Z,69.82
2022-08-26T04:44:41.189Z,70.37
2022-08-26T04:47:08.082Z,70.62
2022-08-26T04:49:35.791Z,70.39
2022-08-26T04:52:03.685Z,70.79
2022-08-26T04:54:31.841Z,71.23
2022-08-26T04:56:59.237Z,71.59
2022-08-26T04:59:26.260Z,71.98
2022-08-26T05:01:57.491Z,72.36
2022-08-26T05:04:24.448Z,72.46
2022-08-26T05:06:54.835Z,72.52
2022-08-26T05:09:24.807Z,72.79
2022-08-26T05:11:52.399Z,72.92
2022-08-26T05:14:21.449Z,73.54
2022-08-26T05:16:49.350Z,73.67
2022-08-26T05:19:17.217Z,73.75
2022-08-26T05:21:46.411Z,74.17
2022-08-26T05:24:14.660Z,74.08
2022-08-26T05:26:41.756Z,74.31
2022-08-26T05:29:11.567Z,74.58
2022-08-26T05:31:38.560Z,74.85
2022-08-26T05:34:06.037Z,75.13
2022-08-26T05:36:35.970Z,75.24
2022-08-26T05:39:05.931Z,75.45
2022-08-26T05:41:36.574Z,75.47
2022-08-26T05:44:08.897Z,75.81
2022-08-26T05:46:37.164Z,76.04
2022-08-26T05:49:05.219Z,75.71
2022-08-26T05:51:32.758Z,76.00
2022-08-26T05:54:02.199Z,75.75
2022-08-26T05:56:30.669Z,76.22
2022-08-26T05:58:58.441Z,76.18
2022-08-26T06:01:27.882Z,76.24
2022-08-26T06:04:01.646Z,75.93
2022-08-26T06:06:34.395Z,75.97
2022-08-26T06:09:05.320Z,76.17
2022-08-26T06:11:33.427Z,76.17
2022-08-26T06:14:06.171Z,75.84
2022-08-26T06:16:36.339Z,75.87
2022-08-26T06:19:11.028Z,76.02
2022-08-26T06:21:40.298Z,75.90
2022-08-26T06:24:28.609Z,75.57
2022-08-26T06:26:57.558Z,76.00
2022-08-26T06:29:26.164Z,76.17
2022-08-26T06:31:54.397Z,76.05
2022-08-26T06:34:29.624Z,76.14
2022-08-26T06:36:59.688Z,75.94
2022-08-26T06:39:28.120Z,75.93
2022-08-26T06:42:00.077Z,75.88
2022-08-26T06:44:27.274Z,75.91
2022-08-26T06:46:54.680Z,75.95
2022-08-26T06:49:27.240Z,76.04
2022-08-26T06:51:58.506Z,76.05
2022-08-26T06:54:26.076Z,75.74
2022-08-26T06:56:52.898Z,75.88
2022-08-26T06:59:19.703Z,76.11
2022-08-26T07:01:46.753Z,75.99
2022-08-26T07:04:20.149Z,75.58
2022-08-26T07:06:52.696Z,75.89
2022-08-26T07:09:21.334Z,75.92
2022-08-26T07:11:48.296Z,75.88
2022-08-26T07:14:17.045Z,76.02
2022-08-26T07:16:48.277Z,75.64
2022-08-26T07:19:15.571Z,75.99
2022-08-26T07:21:44.250Z,75.95
2022-08-26T07:24:11.380Z,75.81
2022-08-26T07:26:43.115Z,75.68
2022-08-26T07:29:12.668Z,75.62
2022-08-26T07:31:42.352Z,75.46
2022-08-26T07:34:10.625Z,75.66
2022-08-26T07:36:37.626Z,75.63
2022-08-26T07:39:05.044Z,75.51
2022-08-26T07:41:31.805Z,75.15
2022-08-26T07:43:59.720Z,74.94
2022-08-26T07:46:27.081Z,75.13
2022-08-26T07:48:56.739Z,74.87
2022-08-26T07:51:23.743Z,75.36
2022-08-26T07:53:53.072Z,75.07
2022-08-26T07:56:21.819Z,75.30
2022-08-26T07:58:51.411Z,75.33
2022-08-26T08:01:24.353Z,75.56
2022-08-26T08:03:54.203Z,75.64
2022-08-26T08:06:27.290Z,75.77
2022-08-26T08:08:55.495Z,76.10
2022-08-26T08:11:23.247Z,76.12
2022-08-26T08:13:52.381Z,75.77
2022-08-26T08:16:28.458Z,75.95
2022-08-26T08:18:59.213Z,76.06
2022-08-26T08:21:28.945Z,76.24
2022-08-26T08:23:57.465Z,75.93
2022-08-26T08:26:25.883Z,75.89
2022-08-26T08:28:57.393Z,75.96
2022-08-26T08:31:56.759Z,75.64
2022-08-26T08:34:17.117Z,75.73
2022-08-26T08:36:46.489Z,76.02
2022-08-26T08:39:13.949Z,76.05
2022-08-26T08:41:56.110Z,76.09
2022-08-26T08:47:04.119Z,75.86
2022-08-26T08:49:33.402Z,75.97
2022-08-26T08:52:12.188Z,75.77
2022-08-26T08:54:38.916Z,76.12
2022-08-26T08:57:18.139Z,75.71
2022-08-26T08:59:59.496Z,76.15
2022-08-26T09:02:50.407Z,75.78
2022-08-26T09:05:32.071Z,75.93
2022-08-26T09:08:12.175Z,76.16
2022-08-26T09:10:43.805Z,75.98
2022-08-26T09:13:16.821Z,75.91
2022-08-26T09:16:10.120Z,75.81
2022-08-26T09:18:39.893Z,75.51
2022-08-26T09:21:12.553Z,75.07
2022-08-26T09:23:42.783Z,75.07
2022-08-26T09:26:28.743Z,74.83
2022-08-26T09:29:05.308Z,74.68
2022-08-26T09:31:34.276Z,74.61
2022-08-26T09:34:17.391Z,74.19
2022-08-26T09:36:47.721Z,74.26
2022-08-26T09:39:37.752Z,74.28
2022-08-26T09:42:22.634Z,74.00
2022-08-26T09:44:57.035Z,73.47
2022-08-26T09:47:52.625Z,73.57
2022-08-26T09:50:39.728Z,73.30
2022-08-26T09:53:13.056Z,72.72
2022-08-26T09:55:42.668Z,72.73
2022-08-26T09:58:15.397Z,72.32
2022-08-26T10:01:03.693Z,71.96
2022-08-26T10:03:34.629Z,71.72
2022-08-26T10:06:20.944Z,71.66
2022-08-26T10:09:00.058Z,71.55
2022-08-26T10:11:54.062Z,71.50
2022-08-26T10:14:31.211Z,71.58
2022-08-26T10:17:25.121Z,71.53
2022-08-26T10:19:57.952Z,71.31
2022-08-26T10:22:30.794Z,71.48
2022-08-26T10:25:02.724Z,71.50
2022-08-26T10:27:53.850Z,71.28
2022-08-26T10:30:27.738Z,71.20
2022-08-26T10:33:06.759Z,70.71
2022-08-26T10:35:37.152Z,70.79
2022-08-26T10:38:17.357Z,70.84
2022-08-26T10:40:59.131Z,70.84
2022-08-26T10:43:31.043Z,70.26
2022-08-26T10:46:03.909Z,70.02
2022-08-26T10:48:48.551Z,70.08
2022-08-26T10:51:19.584Z,69.64
2022-08-26T10:54:05.352Z,69.32
2022-08-26T10:56:44.100Z,69.43
2022-08-26T10:59:43.755Z,69.02
2022-08-26T11:02:33.811Z,68.65
2022-08-26T11:05:04.602Z,68.73
2022-08-26T11:07:37.532Z,68.50
2022-08-26T11:10:31.790Z,68.20
2022-08-26T11:13:07.237Z,67.98
2022-08-26T11:15:40.270Z,67.72
2022-08-26T11:18:12.608Z,67.48
2022-08-26T11:20:44.374Z,67.20
2022-08-26T11:23:12.621Z,67.17
2022-08-26T11:26:11.006Z,66.84
2022-08-26T11:28:44.153Z,66.43
2022-08-26T11:31:38.429Z,65.98
2022-08-26T11:34:10.930Z,65.69
2022-08-26T11:36:45.688Z,65.33
2022-08-26T11:39:28.884Z,65.15
2022-08-26T11:42:35.780Z,65.07
2022-08-26T11:45:19.394Z,65.07
2022-08-26T11:47:46.829Z,64.99
2022-08-26T11:50:23.598Z,64.42
2022-08-26T11:52:55.020Z,64.18
2022-08-26T11:55:23.252Z,63.61
2022-08-26T11:57:57.585Z,63.34
2022-08-26T12:00:33.554Z,62.68
2022-08-26T12:03:05.248Z,61.88
2022-08-26T12:05:38.306Z,61.48
2022-08-26T12:08:11.487Z,61.00
2022-08-26T12:10:38.480Z,60.88
2022-08-26T12:13:07.312Z,61.11
2022-08-26T12:15:35.852Z,60.99
2022-08-26T12:18:29.180Z,61.07
2022-08-26T12:20:59.782Z,61.20
2022-08-26T12:23:36.803Z,61.71
2022-08-26T12:26:23.349Z,61.44
2022-08-26T12:29:12.762Z,61.63
2022-08-26T12:31:48.438Z,61.94
2022-08-26T12:34:18.142Z,61.68
2022-08-26T12:37:03.736Z,61.56
2022-08-26T12:39:37.400Z,61.64
2022-08-26T12:42:21.838Z,61.27
2022-08-26T12:44:58.533Z,61.21
2022-08-26T12:47:41.917Z,61.42
2022-08-26T12:50:16.507Z,61.83
2022-08-26T12:52:51.716Z,61.69
2022-08-26T12:55:23.841Z,61.34
2022-08-26T12:57:50.730Z,60.69
2022-08-26T13:00:28.334Z,59.86
2022-08-26T13:02:55.403Z,58.96
2022-08-26T13:05:35.860Z,58.52
2022-08-26T13:08:10.625Z,57.77
2022-08-26T13:10:40.139Z,57.87
2022-08-26T13:13:07.092Z,57.63
2022-08-26T13:15:34.054Z,57.34
2022-08-26T13:18:03.431Z,57.72
2022-08-26T13:20:30.695Z,57.53
2022-08-26T13:22:58.965Z,57.20
2022-08-26T13:25:35.813Z,57.13
2022-08-26T13:28:02.630Z,56.58
2022-08-26T13:30:29.370Z,56.06
2022-08-26T13:33:00.675Z,55.69
2022-08-26T13:35:28.959Z,55.74
2022-08-26T13:37:55.733Z,55.67
2022-08-26T13:40:26.173Z,55.64
2022-08-26T13:42:52.925Z,55.34
2022-08-26T13:45:19.681Z,54.84
2022-08-26T13:47:46.663Z,54.63
2022-08-26T13:50:13.405Z,54.51
2022-08-26T13:52:40.045Z,54.57
2022-08-26T13:55:08.099Z,54.38
2022-08-26T13:57:34.922Z,54.33
2022-08-26T14:00:01.771Z,54.73
2022-08-26T14:02:28.911Z,55.20
2022-08-26T14:04:56.050Z,55.55
2022-08-26T14:07:23.485Z,55.65
2022-08-26T14:09:50.717Z,55.65
2022-08-26T14:12:17.780Z,56.01
2022-08-26T14:14:45.097Z,55.91
2022-08-26T14:17:17.283Z,55.89
2022-08-26T14:19:46.107Z,55.89
2022-08-26T14:22:15.441Z,55.81
2022-08-26T14:24:42.303Z,55.53
2022-08-26T14:27:08.976Z,55.25
2022-08-26T14:29:35.720Z,55.20
2022-08-26T14:32:10.065Z,55.06
2022-08-26T14:34:37.428Z,55.25
2022-08-26T14:37:07.443Z,55.20
2022-08-26T14:39:36.118Z,55.25
2022-08-26T14:42:02.899Z,54.73
2022-08-26T14:44:32.609Z,54.83
2022-08-26T14:47:02.594Z,54.94
2022-08-26T14:49:32.253Z,54.79
2022-08-26T14:51:59.622Z,55.03
2022-08-26T14:54:26.775Z,54.97
2022-08-26T14:56:56.720Z,54.79
2022-08-26T14:59:32.527Z,54.64
2022-08-26T15:02:00.706Z,54.62
2022-08-26T15:04:28.438Z,54.62
2022-08-26T15:06:58.816Z,54.81
2022-08-26T15:09:27.027Z,54.88
2022-08-26T15:11:53.913Z,55.05
2022-08-26T15:14:22.050Z,54.64
2022-08-26T15:16:50.612Z,55.03
2022-08-26T15:19:17.750Z,54.74
2022-08-26T15:21:45.789Z,54.43
2022-08-26T15:24:13.886Z,54.54
2022-08-26T15:26:41.065Z,54.59
2022-08-26T15:29:07.966Z,54.73
2022-08-26T15:31:35.063Z,54.37
2022-08-26T15:34:12.130Z,54.41
2022-08-26T15:36:44.787Z,54.14
2022-08-26T15:39:12.306Z,54.13
2022-08-26T15:41:39.664Z,53.83
2022-08-26T15:44:07.916Z,53.54
2022-08-26T15:46:36.411Z,53.09
2022-08-26T15:49:04.716Z,52.67
2022-08-26T15:51:35.371Z,52.20
2022-08-26T15:54:12.570Z,51.98
2022-08-26T15:56:39.322Z,51.69
2022-08-26T15:59:08.156Z,51.31
2022-08-26T16:01:35.710Z,50.72
2022-08-26T16:04:03.310Z,50.63
2022-08-26T16:06:32.594Z,50.45
2022-08-26T16:08:59.882Z,50.16
2022-08-26T16:11:27.640Z,49.60
2022-08-26T16:13:55.160Z,47.62
2022-08-26T16:16:22.565Z,46.50
2022-08-26T16:18:49.736Z,45.61
2022-08-26T16:21:21.659Z,45.40
2022-08-26T16:23:49.080Z,45.52
2022-08-26T16:26:21.038Z,45.89
2022-08-26T16:28:47.994Z,46.00
2022-08-26T16:31:15.581Z,46.33
2022-08-26T16:33:42.355Z,46.71
2022-08-26T16:36:09.713Z,46.35
2022-08-26T16:38:37.876Z,45.42
2022-08-26T16:41:05.575Z,43.95
2022-08-26T16:43:32.326Z,41.84
2022-08-26T16:45:59.585Z,41.10
2022-08-26T16:48:27.563Z,40.83
2022-08-26T16:50:55.725Z,40.76
2022-08-26T16:53:23.314Z,41.21
2022-08-26T16:55:51.328Z,41.54
2022-08-26T16:58:22.003Z,42.08
2022-08-26T17:00:49.697Z,42.77
2022-08-26T17:03:16.965Z,43.24
2022-08-26T17:05:43.707Z,43.33
2022-08-26T17:08:11.190Z,43.74
2022-08-26T17:10:38.097Z,44.06
2022-08-26T17:13:05.082Z,44.47
2022-08-26T17:15:32.376Z,44.71
2022-08-26T17:17:59.209Z,45.00
2022-08-26T17:20:26.746Z,45.39
2022-08-26T17:22:55.463Z,45.87
2022-08-26T17:25:28.466Z,46.41
2022-08-26T17:30:23.935Z,46.92
2022-08-26T17:32:50.883Z,47.24
2022-08-26T17:35:18.156Z,47.41
2022-08-26T17:37:45.212Z,47.62
2022-08-26T17:40:15.827Z,47.54
2022-08-26T17:42:42.870Z,47.62
2022-08-26T17:45:11.065Z,47.80
2022-08-26T17:47:38.668Z,47.64
2022-08-26T17:50:09.370Z,47.98
2022-08-26T17:52:37.738Z,47.93
2022-08-26T17:55:06.075Z,47.90
2022-08-26T17:57:33.326Z,48.38
2022-08-26T18:00:11.714Z,48.20
2022-08-26T18:02:39.165Z,48.28
2022-08-26T18:05:08.366Z,48.53
2022-08-26T18:07:43.993Z,48.67
2022-08-26T18:10:13.492Z,48.43
2022-08-26T18:12:41.751Z,48.73
2022-08-26T18:15:10.559Z,48.92
2022-08-26T18:17:39.406Z,48.68
2022-08-26T18:20:11.822Z,48.91
2022-08-26T18:22:38.550Z,48.99
2022-08-26T18:25:06.879Z,48.67
2022-08-26T18:27:35.735Z,48.62
2022-08-26T18:30:07.060Z,48.78
2022-08-26T18:32:33.823Z,48.53
2022-08-26T18:35:00.744Z,48.68
2022-08-26T18:37:30.911Z,48.64
2022-08-26T18:39:59.601Z,48.81
2022-08-26T18:42:27.324Z,49.20
2022-08-26T18:44:54.218Z,50.02
2022-08-26T18:47:21.112Z,50.80
2022-08-26T18:49:48.853Z,51.10
2022-08-26T18:52:15.929Z,51.92
2022-08-26T18:54:43.225Z,52.61
2022-08-26T18:57:12.672Z,53.13
2022-08-26T18:59:40.919Z,53.58
2022-08-26T19:02:09.750Z,53.79
2022-08-26T19:04:38.739Z,54.14
2022-08-26T19:07:05.944Z,54.86
2022-08-26T19:09:33.379Z,55.54
2022-08-26T19:12:01.685Z,55.81
2022-08-26T19:14:29.157Z,55.80
2022-08-26T19:16:56.006Z,56.36
2022-08-26T19:19:26.393Z,56.58
2022-08-26T19:21:53.548Z,56.97
2022-08-26T19:24:21.039Z,57.09
2022-08-26T19:26:57.587Z,57.44
2022-08-26T19:29:26.870Z,57.83
2022-08-26T19:31:53.762Z,58.45
2022-08-26T19:34:20.841Z,58.27
2022-08-26T19:36:48.582Z,58.44
2022-08-26T19:39:15.901Z,58.14
2022-08-26T19:41:42.881Z,58.55
2022-08-26T19:44:13.206Z,58.13
2022-08-26T19:46:40.655Z,57.59
2022-08-26T19:49:07.811Z,57.46
2022-08-26T19:51:36.544Z,57.23
2022-08-26T19:54:04.450Z,57.28
2022-08-26T19:56:31.271Z,57.29
2022-08-26T19:58:58.433Z,57.99
2022-08-26T20:01:25.691Z,58.95
2022-08-26T20:03:52.948Z,59.95
2022-08-26T20:06:20.311Z,60.87
2022-08-26T20:08:47.510Z,61.26
2022-08-26T20:11:18.861Z,61.77
2022-08-26T20:13:47.432Z,62.30
2022-08-26T20:16:15.142Z,62.26
2022-08-26T20:19:01.946Z,62.88
2022-08-26T20:21:31.797Z,63.59
2022-08-26T20:24:02.240Z,64.38
2022-08-26T20:26:30.875Z,64.73
2022-08-26T20:28:58.019Z,65.43
2022-08-26T20:31:26.198Z,65.79
2022-08-26T20:33:53.650Z,66.17
2022-08-26T20:36:22.944Z,66.79
2022-08-26T20:38:50.487Z,67.07
2022-08-26T20:41:18.356Z,67.62
2022-08-26T20:43:46.350Z,68.19
2022-08-26T20:46:18.256Z,68.45
2022-08-26T20:48:47.120Z,69.14
2022-08-26T20:51:13.976Z,69.53
2022-08-26T20:53:43.598Z,70.05
2022-08-26T20:56:14.655Z,70.26
2022-08-26T20:58:42.053Z,70.43
2022-08-26T21:01:18.103Z,70.85
2022-08-26T21:03:45.578Z,70.97
2022-08-26T21:06:12.955Z,71.74
2022-08-26T21:08:43.225Z,71.80
2022-08-26T21:11:11.515Z,72.11
2022-08-26T21:14:01.241Z,72.42
2022-08-26T21:16:28.841Z,72.41
2022-08-26T21:18:57.540Z,72.85
2022-08-26T21:21:27.786Z,73.15
2022-08-26T21:23:55.076Z,73.47
2022-08-26T21:26:22.685Z,73.41
2022-08-26T21:28:52.517Z,73.68
2022-08-26T21:31:22.119Z,73.91
2022-08-26T21:33:51.035Z,73.90
2022-08-26T21:36:18.762Z,73.92
2022-08-26T21:38:46.139Z,74.00
2022-08-26T21:41:18.732Z,74.09
2022-08-26T21:43:47.312Z,74.18
2022-08-26T21:46:16.810Z,74.58
2022-08-26T21:48:50.355Z,74.57
2022-08-26T21:51:20.373Z,74.45
2022-08-26T21:53:47.446Z,74.82
2022-08-26T21:56:16.683Z,74.66
2022-08-26T21:58:44.493Z,74.75
2022-08-26T22:01:14.963Z,74.82
2022-08-26T22:03:46.754Z,75.09
2022-08-26T22:06:22.233Z,74.83
2022-08-26T22:08:49.213Z,74.99
2022-08-26T22:11:17.052Z,75.11
2022-08-26T22:13:45.213Z,75.11
2022-08-26T22:16:15.312Z,75.09
2022-08-26T22:18:44.186Z,75.46
2022-08-26T22:21:20.294Z,75.38
2022-08-26T22:23:50.392Z,75.48
2022-08-26T22:26:25.543Z,75.20
2022-08-26T22:28:58.730Z,75.02
2022-08-26T22:31:37.673Z,74.70
2022-08-26T22:34:11.522Z,74.81
2022-08-26T22:36:43.673Z,74.49
2022-08-26T22:39:15.505Z,74.66
2022-08-26T22:41:43.702Z,74.28
2022-08-26T22:44:11.913Z,73.57
2022-08-26T22:46:42.299Z,73.13
2022-08-26T22:49:11.526Z,72.79
2022-08-26T22:51:38.672Z,72.35
2022-08-26T22:54:05.957Z,71.91
2022-08-26T22:56:33.225Z,71.75
2022-08-26T22:59:00.077Z,71.20
2022-08-26T23:01:26.949Z,71.00
2022-08-26T23:03:55.236Z,71.06
2022-08-26T23:06:21.955Z,70.69
2022-08-26T23:08:49.438Z,70.27
2022-08-26T23:11:16.470Z,70.26
2022-08-26T23:13:43.178Z,70.23
2022-08-26T23:16:12.232Z,69.79
2022-08-26T23:18:40.907Z,69.87
2022-08-26T23:21:08.086Z,69.72
2022-08-26T23:23:35.680Z,69.59
2022-08-26T23:26:06.157Z,69.24
2022-08-26T23:28:33.790Z,68.72
2022-08-26T23:31:00.543Z,68.89
2022-08-26T23:33:47.443Z,68.41
2022-08-26T23:36:17.585Z,68.20
2022-08-26T23:38:48.562Z,68.31
2022-08-26T23:41:21.398Z,67.93
2022-08-26T23:43:48.271Z,68.13
2022-08-26T23:46:15.389Z,67.95
2022-08-26T23:48:42.144Z,68.11
2022-08-26T23:51:28.060Z,67.76
2022-08-26T23:53:55.156Z,67.95
2022-08-26T23:56:21.968Z,67.96
2022-08-26T23:58:48.667Z,67.54
